Latest Conditions
At L.F.Wade Int. Airport
Recorded at 4:55 am
Partly Cloudy
Temp.: 
24°C/76°F
Humidity: 
63%
Wind: 
NNE 10KT
or 12mph
UV Index: 
0
Island Observations
 
Observations
Monday, October 15, 2018

Observations are in local time and taken at least once an hour, or upon the start and end of specified events such as showers and thunderstorms.

Time Sky / Weather Wind Speed/Gusts Temp. R.H. Pressure
     knots (mph)  °C (°F)  %  mb / "Hg
 04:55 Partly Cloudy  NNE 10/0 (12/0) 24(76) 63 1022 / 30.17
 03:55 Partly Cloudy  NNE 8/0 (9/0) 24(75) 68 1022 / 30.17
 02:55 Mostly Cloudy  NE 8/0 (9/0) 24(75) 71 1022 / 30.18
 01:55 Mostly Cloudy  NE 8/0 (9/0) 24(76) 71 1022 / 30.17
 00:55 Mostly Cloudy  NE 9/0 (10/0) 24(76) 73 1022 / 30.18
 23:55 Mostly Cloudy  NE 9/0 (10/0) 24(76) 74 1022 / 30.18
 22:55 Mostly Cloudy  NE 11/0 (13/0) 24(76) 74 1022 / 30.18
 21:55 Mostly Cloudy  NE 11/0 (13/0) 25(76) 72 1021 / 30.16
 20:55 Mostly Cloudy Showers NE 11/0 (13/0) 25(76) 74 1021 / 30.15
 19:55 Mostly Cloudy Showers NE 9/0 (10/0) 24(76) 81 1021 / 30.14
 19:20 Mostly Cloudy Showers ENE 11/0 (13/0) 24(75) 83 1020 / 30.12
 18:55 Mostly Cloudy Showers NE 11/0 (13/0) 24(76) 82 1020 / 30.12
 17:55 Mostly Cloudy Showers NE 11/0 (13/0) 24(76) 82 1020 / 30.11
 17:46 Mostly Cloudy Showers NE 10/0 (12/0) 26(78) 81 1020 / 30.11
 17:40 Mostly Cloudy Showers ENE 11/0 (13/0) 26(79) 79 1020 / 30.11
 16:55 Mostly Cloudy  ENE 12/0 (14/0) 25(76) 80 1019 / 30.09
 15:55 Mostly Cloudy Showers ENE 12/0 (14/0) 25(76) 86 1019 / 30.08
 15:30 Mostly Cloudy Showers NE 12/0 (14/0) 24(75) 85 1019 / 30.08
 14:55 Mostly Cloudy Showers NE 13/0 (15/0) 24(75) 89 1019 / 30.09
 13:55 Mostly Cloudy Showers NE 12/0 (14/0) 23(73) 88 1019 / 30.09
 13:02 Overcast Showers NNE 14/0 (16/0) 23(73) 90 1020 / 30.11
 12:55 Mostly Cloudy Showers NNE 15/0 (17/0) 24(75) 86 1019 / 30.10
 12:30 Mostly Cloudy Showers NNE 13/0 (15/0) 24(75) 86 1019 / 30.10
 11:55 Mostly Cloudy  NNE 11/0 (13/0) 25(78) 82 1019 / 30.09
 10:55 Mostly Cloudy Showers NE 11/0 (13/0) 26(78) 81 1019 / 30.09
 10:36 Mostly Cloudy Showers ENE 12/0 (14/0) 25(77) 84 1019 / 30.09
 10:27 Mostly Cloudy Showers N 8/0 (9/0) 24(75) 91 1019 / 30.08
 09:55 Mostly Cloudy  NNE 9/0 (10/0) 24(76) 90 1018 / 30.07
 09:28 Mostly Cloudy  NE 12/0 (14/0) 24(76) 92 1018 / 30.05
 08:55 Mostly Cloudy Showers N 8/0 (9/0) 24(75) 93 1017 / 30.04
 08:41 Mostly Cloudy Showers N 8/0 (9/0) 24(75) 91 1017 / 30.04
 07:55 Mostly Cloudy Showers WNW 6/0 (7/0) 24(75) 93 1017 / 30.02
 07:37 Mostly Cloudy Showers NW 6/0 (7/0) 26(79) 86 1017 / 30.02
 07:15 Overcast Showers W 8/0 (9/0) 23(74) 91 1017 / 30.02
 06:55 Overcast Showers WSW 18/0 (21/0) 23(73) 97 1017 / 30.02
 06:38 Overcast Showers WSW 18/28 (21/32) 23(73) 96 1017 / 30.03
 06:12 Overcast Showers WSW 19/0 (22/0) 24(74) 94 1016 / 30.01
 06:04 Overcast Showers WSW 19/0 (22/0) 24(74) 94 1016 / 30.01
 05:55 Overcast Showers WSW 11/0 (13/0) 24(75) 92 1016 / 30.00
 05:45 Overcast Showers WSW 10/0 (12/0) 24(75) 92 1016 / 30.00
 04:55 Overcast Showers W 16/0 (18/0) 23(74) 95 1015 / 29.98
 04:31 Mostly Cloudy Showers W 20/32 (23/37) 24(75) 94 1015 / 29.97
 04:21 Overcast Showers WSW 13/0 (15/0) 24(75) 94 1015 / 29.98
 03:55 Overcast Showers WSW 21/0 (24/0) 24(75) 86 1015 / 29.97
 03:34 Overcast Showers WSW 22/0 (25/0) 24(74) 94 1016 / 29.99
 03:25 Overcast Showers SW 18/0 (21/0) 26(78) 91 1015 / 29.98
 02:55 Mostly Cloudy Showers SW 19/0 (22/0) 26(79) 88 1015 / 29.97
 02:20 Mostly Cloudy Showers WSW 15/0 (17/0) 24(76) 74 1015 / 29.98
 01:55 Mostly Cloudy Showers SW 21/0 (24/0) 26(80) 86 1015 / 29.98
 00:55 Mostly Cloudy Showers SW 19/0 (22/0) 26(80) 86 1015 / 29.98
 23:55 Mostly Cloudy  SW 17/0 (20/0) 26(80) 85 1016 / 29.99
 22:55 Mostly Cloudy  SSW 19/0 (22/0) 26(80) 85 1015 / 29.98
 21:55 Mostly Cloudy  SW 19/0 (22/0) 26(80) 86 1015 / 29.98
 20:55 Mostly Cloudy  SSW 20/0 (23/0) 26(80) 84 1015 / 29.96
 19:55 Mostly Cloudy  SSW 17/0 (20/0) 26(80) 84 1014 / 29.95
 18:55 Mostly Cloudy  SW 18/0 (21/0) 27(80) 81 1014 / 29.95
 17:55 Mostly Cloudy  SW 17/0 (20/0) 27(81) 78 1014 / 29.94
 16:55 Mostly Cloudy  SW 19/0 (22/0) 28(82) 77 1013 / 29.92
 15:55 Mostly Cloudy  SW 17/0 (20/0) 27(81) 74 1013 / 29.92
 14:55 Mostly Cloudy  SW 22/0 (25/0) 28(82) 69 1014 / 29.93
 13:55 Mostly Cloudy  SW 22/0 (25/0) 28(83) 70 1014 / 29.93
 12:55 Mostly Cloudy  SSW 20/0 (23/0) 28(83) 72 1014 / 29.94
 12:02 Mostly Cloudy Showers SW 22/0 (25/0) 28(83) 61 1014 / 29.95
 11:55 Mostly Cloudy Showers SSW 21/0 (24/0) 28(82) 63 1015 / 29.96
 11:14 Mostly Cloudy  SW 20/0 (23/0) 28(83) 73 1015 / 29.96
 10:55 Mostly Cloudy  SSW 20/0 (23/0) 28(83) 74 1015 / 29.96
 09:55 Mostly Cloudy  SSW 20/0 (23/0) 28(82) 77 1014 / 29.95
 08:55 Mostly Cloudy  SSW 19/0 (22/0) 27(80) 79 1014 / 29.93
 07:55 Mostly Cloudy  SSW 21/0 (24/0) 26(79) 81 1013 / 29.92
 06:55 Mostly Cloudy  SW 19/0 (22/0) 26(79) 81 1013 / 29.92
 05:55 Mostly Cloudy  SW 19/0 (22/0) 26(79) 83 1013 / 29.91
 04:55 Partly Cloudy  SSW 20/0 (23/0) 26(78) 83 1012 / 29.89
 03:55 Partly Cloudy  SW 17/0 (20/0) 26(78) 82 1012 / 29.89
 02:55 Partly Cloudy  SW 17/0 (20/0) 26(78) 82 1013 / 29.90
 01:55 Few Clouds  SW 15/0 (17/0) 26(78) 81 1013 / 29.91
 00:55 Partly Cloudy  SW 15/0 (17/0) 26(78) 80 1013 / 29.91
 23:55 Partly Cloudy  SW 16/0 (18/0) 26(78) 79 1013 / 29.91
 22:55 Partly Cloudy  SW 15/0 (17/0) 26(78) 79 1013 / 29.91
 21:55 Few Clouds  SW 15/0 (17/0) 26(78) 79 1013 / 29.90
 20:55 Few Clouds  SW 15/0 (17/0) 26(78) 77 1013 / 29.90
 19:55 Few Clouds  SW 12/0 (14/0) 26(78) 74 1013 / 29.90
 18:55 Partly Cloudy  SW 14/0 (16/0) 26(79) 72 1013 / 29.90
 17:55 Partly Cloudy  SW 19/0 (22/0) 27(81) 68 1012 / 29.89
 16:55 Partly Cloudy  SW 18/0 (21/0) 27(81) 68 1012 / 29.88
 15:55 Few Clouds  SW 17/0 (20/0) 27(81) 66 1012 / 29.88
 14:55 Partly Cloudy  SSW 18/0 (21/0) 28(82) 65 1012 / 29.88
 13:55 Mostly Cloudy  SSW 14/0 (16/0) 28(82) 64 1013 / 29.91
 12:55 Mostly Cloudy  S 12/0 (14/0) 27(80) 76 1013 / 29.91
 11:55 Mostly Cloudy  S 13/0 (15/0) 26(79) 72 1014 / 29.93
 10:55 Few Clouds Showers S 14/0 (16/0) 26(79) 72 1014 / 29.94
 09:55 Few Clouds  S 12/0 (14/0) 26(79) 70 1014 / 29.94
 08:55 Partly Cloudy  S 11/0 (13/0) 25(78) 71 1014 / 29.94
 07:55 Few Clouds  SSW 12/0 (14/0) 25(76) 73 1014 / 29.94
 06:55 Mostly Cloudy Showers SSW 11/0 (13/0) 24(76) 74 1014 / 29.93
 05:55 Mostly Cloudy Showers S 9/0 (10/0) 25(76) 71 1014 / 29.93
 05:04 Mostly Cloudy Showers SSW 9/0 (10/0) 24(76) 74 1014 / 29.93
 04:55 Mostly Cloudy Showers SSW 8/0 (9/0) 24(76) 74 1014 / 29.93
 04:45 Mostly Cloudy Showers SSW 13/0 (15/0) 27(81) 70 1014 / 29.93
 03:55 Partly Cloudy Showers S 6/0 (7/0) 24(75) 72 1014 / 29.94
 02:55 Partly Cloudy  SSW 7/0 (8/0) 24(75) 70 1015 / 29.96
Island AWOS